^^
Meteo Knjazevac Station Historical Data
Daily Summary for September 23, 2021 Units:  Metric    English   Both
Daily Weekly Monthly Yearly Custom
  High: Low: Average:
Temperature: 15.5 °C 8.9 °C 11.7 °C
Dew Point: 10.4 °C 6.4 °C 7.8 °C
Humidity: 88% 68% 78%
Wind Speed: 4.8km/h 0km/h 1.8km/h
Wind Gust: 11.3km/h - -
Wind- - SSE
Pressure: 1019.5 hPa 1017.8 hPa -
Precipitation: 0 mm    
Historical Graphs
 
 
Tabular Data for September 23, 2021
Time Temperature Dew Point Pressure Wind Wind Speed Wind Gust Humidity Rainfall Rate (Hourly) solar Conditions
00:00 15.5 °C 9.8 °C 1017.8 hPa NE 3.2 km/h 11.3 km/h 69% 0 mm 0 W/m2
00:10 15.4 °C 9.7 °C 1018.2 hPa ESE 1.6 km/h 8 km/h 69% 0 mm 0 W/m2
00:20 15.1 °C 9.2 °C 1017.8 hPa Calm   4.8 km/h 68% 0 mm 0 W/m2
00:30 14.9 °C 9.1 °C 1017.8 hPa NNE 4.8 km/h 9.7 km/h 68% 0 mm 0 W/m2
00:40 14.7 °C 9.3 °C 1017.8 hPa North 3.2 km/h 11.3 km/h 70% 0 mm 0 W/m2
00:50 14.6 °C 9.6 °C 1018.2 hPa Calm   3.2 km/h 72% 0 mm 0 W/m2
01:00 14.3 °C 8.7 °C 1018.2 hPa North 3.2 km/h 4.8 km/h 69% 0 mm 0 W/m2
01:10 13.8 °C 8.2 °C 1018.2 hPa NW 1.6 km/h 4.8 km/h 69% 0 mm 0 W/m2
01:20 13.4 °C 7.7 °C 1018.2 hPa Calm   8 km/h 68% 0 mm 0 W/m2
01:30 13.2 °C 7.4 °C 1018.2 hPa NNE 1.6 km/h 3.2 km/h 68% 0 mm 0 W/m2
01:40 13.1 °C 7.3 °C 1018.2 hPa ESE 3.2 km/h 6.4 km/h 68% 0 mm 0 W/m2
01:50 12.8 °C 7.3 °C 1018.2 hPa South 3.2 km/h 4.8 km/h 69% 0 mm 0 W/m2
02:00 12.7 °C 6.9 °C 1018.2 hPa ESE 3.2 km/h 8 km/h 68% 0 mm 0 W/m2
02:10 12.6 °C 6.8 °C 1018.2 hPa SSE 1.6 km/h 9.7 km/h 68% 0 mm 0 W/m2
02:20 12.5 °C 7.2 °C 1018.2 hPa NNW 1.6 km/h 4.8 km/h 70% 0 mm 0 W/m2
02:30 12.3 °C 7 °C 1018.2 hPa East 1.6 km/h 4.8 km/h 70% 0 mm 0 W/m2
02:40 12.2 °C 7.3 °C 1018.2 hPa ESE 3.2 km/h 6.4 km/h 72% 0 mm 0 W/m2
02:50 12.1 °C 7.8 °C 1018.2 hPa ENE 3.2 km/h 6.4 km/h 75% 0 mm 0 W/m2
03:00 11.9 °C 8 °C 1018.5 hPa Calm   4.8 km/h 77% 0 mm 0 W/m2
03:10 11.8 °C 8.1 °C 1018.2 hPa NE 4.8 km/h 8 km/h 78% 0 mm 0 W/m2
03:20 11.6 °C 7.9 °C 1018.2 hPa Calm   4.8 km/h 78% 0 mm 0 W/m2
03:30 11.3 °C 7.7 °C 1018.2 hPa Calm   3.2 km/h 78% 0 mm 0 W/m2
03:40 11 °C 7.5 °C 1018.5 hPa Calm   3.2 km/h 79% 0 mm 0 W/m2
03:50 10.7 °C 7.2 °C 1018.2 hPa NNW 1.6 km/h 3.2 km/h 79% 0 mm 0 W/m2
04:00 10.6 °C 7.1 °C 1018.5 hPa Calm   3.2 km/h 79% 0 mm 0 W/m2
04:10 10.6 °C 7.1 °C 1018.5 hPa ENE 3.2 km/h 9.7 km/h 79% 0 mm 0 W/m2
04:20 10.7 °C 7.6 °C 1018.5 hPa East 1.6 km/h 9.7 km/h 81% 0 mm 0 W/m2
04:30 10.7 °C 7.5 °C 1018.5 hPa Calm   6.4 km/h 81% 0 mm 0 W/m2
04:40 10.4 °C 7.3 °C 1018.5 hPa Calm   4.8 km/h 81% 0 mm 0 W/m2
04:50 10.3 °C 7.2 °C 1018.5 hPa Calm   8 km/h 81% 0 mm 0 W/m2
05:00 10.1 °C 7.2 °C 1018.5 hPa North 1.6 km/h 3.2 km/h 82% 0 mm 4 W/m2
05:10 9.8 °C 7.3 °C 1018.5 hPa North 1.6 km/h 3.2 km/h 84% 0 mm 10 W/m2
05:20 9.6 °C 7 °C 1018.8 hPa NNW 1.6 km/h 4.8 km/h 84% 0 mm 17 W/m2
05:30 9.2 °C 6.6 °C 1018.8 hPa WNW 1.6 km/h 4.8 km/h 84% 0 mm 25 W/m2
05:40 8.9 °C 6.4 °C 1018.8 hPa NNW 3.2 km/h 4.8 km/h 84% 0 mm 32 W/m2
05:50 8.9 °C 6.5 °C 1018.8 hPa North 3.2 km/h 4.8 km/h 85% 0 mm 40 W/m2
06:00 9.1 °C 6.7 °C 1018.8 hPa Calm   3.2 km/h 85% 0 mm 82 W/m2
06:10 9.1 °C 6.9 °C 1018.8 hPa NNW 1.6 km/h 3.2 km/h 86% 0 mm 68 W/m2
06:20 9.2 °C 7 °C 1019.2 hPa Calm   3.2 km/h 86% 0 mm 144 W/m2
06:30 9.4 °C 7.2 °C 1019.2 hPa Calm   3.2 km/h 86% 0 mm 111 W/m2
06:40 9.7 °C 7.4 °C 1019.2 hPa Calm     86% 0 mm 201 W/m2
06:50 10 °C 7.8 °C 1019.2 hPa NNE 1.6 km/h 4.8 km/h 86% 0 mm 238 W/m2
07:00 10.5 °C 8.6 °C 1019.5 hPa Calm   6.4 km/h 88% 0 mm 271 W/m2
07:10 10.9 °C 8.3 °C 1019.2 hPa NE 4.8 km/h 9.7 km/h 84% 0 mm 313 W/m2
07:20 11.7 °C 9.1 °C 1019.2 hPa NE 3.2 km/h 8 km/h 84% 0 mm 347 W/m2
07:30 12.3 °C 9.6 °C 1019.2 hPa ENE 3.2 km/h 9.7 km/h 83% 0 mm 383 W/m2
07:40 13 °C 10 °C 1019.2 hPa ENE 4.8 km/h 8 km/h 82% 0 mm 418 W/m2
07:50 13.8 °C 10.4 °C 1019.2 hPa ENE 1.6 km/h 6.4 km/h 80% 0 mm 456 W/m2
Knjazevac, Serbia
Compliments of Weather Underground - 2 mb